Time;durP1;ratioP1;P1;durP2;ratioP2;P2;SDS_P1;SDS_P2;PMS_P1;PMS_P2;Temp;Humidity;BMP_temperature;BMP_pressure;BME280_temperature;BME280_humidity;BME280_pressure;Samples;Min_cycle;Max_cycle;Signal;HPM_P1;HPM_P2
2021/09/25 00:01:41;;;;;;;4.53;1.95;;;21.50;99.90;;;;;;4993668;28;20018;-69
2021/09/25 00:04:07;;;;;;;3.17;1.73;;;21.50;99.90;;;;;;4993847;28;20026;-69
2021/09/25 00:06:32;;;;;;;2.72;2.00;;;21.50;99.90;;;;;;5007406;28;20022;-69
2021/09/25 00:08:58;;;;;;;2.67;2.03;;;21.50;99.90;;;;;;5012485;28;20535;-70
2021/09/25 00:11:26;;;;;;;3.33;2.00;;;21.50;99.90;;;;;;5012603;28;20076;-69
2021/09/25 00:13:52;;;;;;;4.18;2.00;;;21.50;99.90;;;;;;5013002;28;20033;-70
2021/09/25 00:16:18;;;;;;;3.83;1.92;;;21.50;99.90;;;;;;5009383;28;20033;-69
2021/09/25 00:18:43;;;;;;;2.67;1.75;;;21.50;99.90;;;;;;4994018;28;20030;-68
2021/09/25 00:21:09;;;;;;;3.05;2.00;;;21.50;99.90;;;;;;5003888;28;20034;-69
2021/09/25 00:23:35;;;;;;;3.55;1.92;;;21.50;99.90;;;;;;5013087;28;20037;-69
2021/09/25 00:26:00;;;;;;;2.00;1.75;;;21.50;99.90;;;;;;5003657;28;20027;-70
2021/09/25 00:28:26;;;;;;;2.35;1.80;;;21.50;99.90;;;;;;5004887;28;20049;-69
2021/09/25 00:30:52;;;;;;;2.60;2.05;;;21.50;99.90;;;;;;4992814;28;20053;-68
2021/09/25 00:33:17;;;;;;;2.67;1.90;;;21.50;99.90;;;;;;4993244;28;20066;-69
2021/09/25 00:35:43;;;;;;;2.25;1.83;;;21.50;99.90;;;;;;4999147;28;20101;-69
2021/09/25 00:38:09;;;;;;;4.72;1.95;;;21.50;99.90;;;;;;4993381;28;20473;-68
2021/09/25 00:40:34;;;;;;;3.65;2.10;;;21.50;99.90;;;;;;4999428;28;20026;-69
2021/09/25 00:43:00;;;;;;;3.20;2.10;;;21.50;99.90;;;;;;5012753;28;20021;-68
2021/09/25 00:45:26;;;;;;;3.03;2.28;;;21.50;99.90;;;;;;5012347;28;20576;-68
2021/09/25 00:47:52;;;;;;;2.55;2.10;;;21.50;99.90;;;;;;4999098;28;20073;-69
2021/09/25 00:50:19;;;;;;;2.20;1.88;;;21.40;99.90;;;;;;4996218;28;20032;-68
2021/09/25 00:52:45;;;;;;;3.22;2.25;;;21.50;99.90;;;;;;4990939;28;20041;-68
2021/09/25 00:55:12;;;;;;;2.60;2.10;;;21.50;99.90;;;;;;4992823;28;20101;-68
2021/09/25 00:57:38;;;;;;;1.98;1.77;;;21.50;99.90;;;;;;4997664;28;20108;-69
2021/09/25 01:00:06;;;;;;;3.03;2.13;;;21.40;99.90;;;;;;4998660;28;20110;-69
2021/09/25 01:02:36;;;;;;;4.00;2.60;;;21.40;99.90;;;;;;4992872;28;20034;-69
2021/09/25 01:05:03;;;;;;;2.40;2.08;;;21.50;99.90;;;;;;4994225;28;20022;-69
2021/09/25 01:07:29;;;;;;;2.83;2.20;;;21.40;99.90;;;;;;5010707;28;20113;-69
2021/09/25 01:09:55;;;;;;;3.35;2.33;;;21.40;99.90;;;;;;5010101;28;20559;-68
2021/09/25 01:12:21;;;;;;;3.42;2.10;;;21.40;99.90;;;;;;4992510;28;20522;-68
2021/09/25 01:14:47;;;;;;;3.55;2.40;;;21.40;99.90;;;;;;4992428;28;20097;-68
2021/09/25 01:17:13;;;;;;;2.67;2.33;;;21.40;99.90;;;;;;5006681;28;20116;-69
2021/09/25 01:19:40;;;;;;;2.78;2.40;;;21.40;99.90;;;;;;5009862;28;20068;-69
2021/09/25 01:22:07;;;;;;;2.90;2.40;;;21.40;99.90;;;;;;4993239;28;20045;-68
2021/09/25 01:24:33;;;;;;;4.43;2.35;;;21.40;99.90;;;;;;5012003;28;20101;-68
2021/09/25 01:26:59;;;;;;;2.53;2.00;;;21.40;99.90;;;;;;5010959;28;20030;-69
2021/09/25 01:29:26;;;;;;;4.55;2.67;;;21.40;99.90;;;;;;5003683;28;20432;-68
2021/09/25 01:31:52;;;;;;;3.20;2.55;;;21.40;99.90;;;;;;4991814;28;20037;-68
2021/09/25 01:34:18;;;;;;;3.92;2.63;;;21.40;99.90;;;;;;4974755;28;20030;-69
2021/09/25 01:36:44;;;;;;;3.17;2.55;;;21.40;99.90;;;;;;5006678;28;20466;-69
2021/09/25 01:39:10;;;;;;;4.05;2.35;;;21.40;99.90;;;;;;5011441;28;20607;-68
2021/09/25 01:41:35;;;;;;;2.90;2.53;;;21.40;99.90;;;;;;5011786;28;20537;-69
2021/09/25 01:44:02;;;;;;;5.50;2.67;;;21.40;99.90;;;;;;5010326;28;20371;-69
2021/09/25 01:46:27;;;;;;;2.65;2.40;;;21.40;99.90;;;;;;5011426;28;20189;-69
2021/09/25 01:48:53;;;;;;;3.45;2.67;;;21.40;99.90;;;;;;5011460;28;20046;-69
2021/09/25 01:51:19;;;;;;;3.28;2.47;;;21.40;99.90;;;;;;4999867;28;20467;-69
2021/09/25 01:53:44;;;;;;;3.28;2.63;;;21.40;99.90;;;;;;4974631;28;20037;-69
2021/09/25 01:56:13;;;;;;;3.42;2.70;;;21.40;99.90;;;;;;4991918;28;20050;-69
2021/09/25 01:58:40;;;;;;;4.55;3.00;;;21.40;99.90;;;;;;4991699;28;20046;-69
2021/09/25 02:01:07;;;;;;;4.38;2.55;;;21.40;99.90;;;;;;4993140;28;20069;-69
2021/09/25 02:03:36;;;;;;;3.35;2.88;;;21.40;99.90;;;;;;4992467;28;20066;-69
2021/09/25 02:06:10;;;;;;;2.90;2.45;;;21.40;99.90;;;;;;5000615;28;20022;-69
2021/09/25 02:08:37;;;;;;;3.05;2.45;;;21.40;99.90;;;;;;4993601;28;20513;-69
2021/09/25 02:11:03;;;;;;;3.40;2.88;;;21.40;99.90;;;;;;5015730;28;20030;-69
2021/09/25 02:13:30;;;;;;;3.15;2.85;;;21.40;99.90;;;;;;5015407;28;20044;-69
2021/09/25 02:15:56;;;;;;;2.75;2.30;;;21.40;99.90;;;;;;5015421;28;20401;-69
2021/09/25 02:18:23;;;;;;;4.22;2.90;;;21.40;99.90;;;;;;5007399;28;20061;-69
2021/09/25 02:20:49;;;;;;;3.20;2.55;;;21.30;99.90;;;;;;4995349;28;20019;-69
2021/09/25 02:23:15;;;;;;;3.75;2.78;;;21.30;99.90;;;;;;4995891;28;20039;-69
2021/09/25 02:25:40;;;;;;;3.83;2.85;;;21.30;99.90;;;;;;4995472;28;20082;-69
2021/09/25 02:28:06;;;;;;;3.47;2.97;;;21.40;99.90;;;;;;4996634;28;20038;-69
2021/09/25 02:30:32;;;;;;;3.40;2.70;;;21.30;99.90;;;;;;5011712;28;20041;-69
2021/09/25 02:32:58;;;;;;;3.67;2.97;;;21.30;99.90;;;;;;5014293;28;20192;-68
2021/09/25 02:35:24;;;;;;;3.08;2.70;;;21.30;99.90;;;;;;5011747;28;20022;-68
2021/09/25 02:37:50;;;;;;;3.25;2.95;;;21.30;99.90;;;;;;5014476;28;20045;-69
2021/09/25 02:40:17;;;;;;;3.53;2.92;;;21.30;99.90;;;;;;5015263;28;20040;-69
2021/09/25 02:42:44;;;;;;;3.67;2.60;;;21.30;99.90;;;;;;5014317;28;20100;-69
2021/09/25 02:45:11;;;;;;;3.38;2.75;;;21.30;99.90;;;;;;5015000;28;20022;-69
2021/09/25 02:47:37;;;;;;;4.50;3.08;;;21.30;99.90;;;;;;5014734;28;20037;-69
2021/09/25 02:50:05;;;;;;;3.20;2.90;;;21.30;99.90;;;;;;5014602;28;20028;-68
2021/09/25 02:52:31;;;;;;;3.08;2.67;;;21.30;99.90;;;;;;5014221;28;20417;-68
2021/09/25 02:54:57;;;;;;;4.65;3.25;;;21.30;99.90;;;;;;4998231;28;20034;-69
2021/09/25 02:57:22;;;;;;;3.22;2.90;;;21.30;99.90;;;;;;4994985;28;20062;-69
2021/09/25 02:59:48;;;;;;;4.25;3.00;;;21.30;99.90;;;;;;4994971;28;20367;-68
2021/09/25 03:02:14;;;;;;;4.22;3.35;;;21.30;99.90;;;;;;4994897;28;20533;-68
2021/09/25 03:04:39;;;;;;;3.47;2.83;;;21.30;99.90;;;;;;4994608;28;20483;-68
2021/09/25 03:07:07;;;;;;;4.43;3.30;;;21.20;99.90;;;;;;5011510;28;20585;-69
2021/09/25 03:09:33;;;;;;;3.63;3.15;;;21.20;99.90;;;;;;5015015;28;20104;-69
2021/09/25 03:11:59;;;;;;;4.00;3.05;;;21.20;99.90;;;;;;5009471;28;20121;-69
2021/09/25 03:14:24;;;;;;;4.13;3.00;;;21.20;99.90;;;;;;5014337;28;20480;-69
2021/09/25 03:16:50;;;;;;;3.10;2.75;;;21.20;99.90;;;;;;5013373;28;20517;-69
2021/09/25 03:19:16;;;;;;;3.58;3.00;;;21.20;99.90;;;;;;5012815;28;20065;-69
2021/09/25 03:21:41;;;;;;;4.20;3.40;;;21.20;99.90;;;;;;4999327;28;20022;-69
2021/09/25 03:24:07;;;;;;;3.83;3.00;;;21.20;99.90;;;;;;4994486;28;20387;-69
2021/09/25 03:26:33;;;;;;;3.42;2.80;;;21.20;99.90;;;;;;4994722;28;20061;-69
2021/09/25 03:28:58;;;;;;;3.90;3.50;;;21.20;99.90;;;;;;4994164;28;20026;-69
2021/09/25 03:31:24;;;;;;;3.80;3.40;;;21.20;99.90;;;;;;4994383;28;20031;-69
2021/09/25 03:33:50;;;;;;;4.60;3.08;;;21.20;99.90;;;;;;4976705;28;20037;-69
2021/09/25 03:36:15;;;;;;;3.65;3.28;;;21.20;99.90;;;;;;4994277;28;20031;-69
2021/09/25 03:38:41;;;;;;;4.80;3.95;;;21.20;99.90;;;;;;4994102;28;20046;-69
2021/09/25 03:41:06;;;;;;;3.90;3.45;;;21.20;99.90;;;;;;5012378;28;20030;-69
2021/09/25 03:43:33;;;;;;;4.57;3.88;;;21.20;99.90;;;;;;5014230;28;20037;-69
2021/09/25 03:45:59;;;;;;;4.72;3.63;;;21.20;99.90;;;;;;4994164;28;20026;-68
2021/09/25 03:48:24;;;;;;;4.20;3.03;;;21.20;99.90;;;;;;4977009;28;20038;-68
2021/09/25 03:50:50;;;;;;;3.92;3.53;;;21.10;99.90;;;;;;5000346;28;20025;-69
2021/09/25 03:53:16;;;;;;;4.25;3.75;;;21.10;99.90;;;;;;5013735;28;20061;-69
2021/09/25 03:55:41;;;;;;;4.07;3.67;;;21.10;99.90;;;;;;5013235;28;20556;-69
2021/09/25 03:58:07;;;;;;;3.72;3.25;;;21.10;99.90;;;;;;5013316;28;20042;-68
2021/09/25 04:00:32;;;;;;;3.97;3.63;;;21.10;99.90;;;;;;5013916;28;20022;-68
2021/09/25 04:02:58;;;;;;;4.55;3.78;;;21.10;99.90;;;;;;4991263;28;20478;-69
2021/09/25 04:05:24;;;;;;;4.30;3.72;;;21.10;99.90;;;;;;4996576;28;20049;-68
2021/09/25 04:07:49;;;;;;;3.95;3.38;;;21.10;99.90;;;;;;5012776;28;20061;-69
2021/09/25 04:10:16;;;;;;;5.15;3.83;;;21.10;99.90;;;;;;5013323;28;20026;-68
2021/09/25 04:12:42;;;;;;;3.90;3.40;;;21.10;99.90;;;;;;4995562;28;20046;-68
2021/09/25 04:15:09;;;;;;;4.55;3.40;;;21.10;99.90;;;;;;5013298;28;20032;-68
2021/09/25 04:17:35;;;;;;;5.95;3.85;;;21.10;99.90;;;;;;5012617;28;20029;-68
2021/09/25 04:20:05;;;;;;;5.95;3.80;;;21.10;99.90;;;;;;5012550;28;20029;-68
2021/09/25 04:22:31;;;;;;;4.88;3.72;;;21.10;99.90;;;;;;4974437;28;20031;-69
2021/09/25 04:24:56;;;;;;;3.85;3.45;;;21.10;99.90;;;;;;4979924;28;20029;-68
2021/09/25 04:27:22;;;;;;;4.28;3.75;;;21.10;99.90;;;;;;4993526;28;20037;-69
2021/09/25 04:29:48;;;;;;;5.90;4.13;;;21.00;99.90;;;;;;5001120;28;20029;-68
2021/09/25 04:32:14;;;;;;;4.20;3.70;;;21.10;99.90;;;;;;5011655;28;20084;-69
2021/09/25 04:34:39;;;;;;;5.00;3.83;;;21.10;99.90;;;;;;5013433;28;20034;-69
2021/09/25 04:37:05;;;;;;;4.05;3.65;;;21.00;99.90;;;;;;4996302;28;20041;-68
2021/09/25 04:39:31;;;;;;;7.80;3.65;;;21.10;99.90;;;;;;4975954;28;20027;-69
2021/09/25 04:41:57;;;;;;;4.07;3.67;;;21.00;99.90;;;;;;4993011;28;20033;-69
2021/09/25 04:44:22;;;;;;;4.65;3.97;;;21.00;99.90;;;;;;4994132;28;20086;-69
2021/09/25 04:46:48;;;;;;;5.55;3.90;;;21.00;99.90;;;;;;5003618;28;20046;-69
2021/09/25 04:49:15;;;;;;;3.92;3.40;;;21.00;99.90;;;;;;4993097;28;20076;-69
2021/09/25 04:51:41;;;;;;;4.10;3.58;;;21.00;99.90;;;;;;5005237;28;20041;-69
2021/09/25 04:54:07;;;;;;;4.63;3.97;;;21.00;99.90;;;;;;5009778;28;20034;-68
2021/09/25 04:56:33;;;;;;;4.43;3.92;;;21.00;99.90;;;;;;5012754;28;20030;-69
2021/09/25 04:59:00;;;;;;;4.78;3.78;;;21.00;99.90;;;;;;5011250;28;20534;-68
2021/09/25 05:01:26;;;;;;;5.95;3.72;;;21.00;99.90;;;;;;5010670;28;20036;-68
2021/09/25 05:03:51;;;;;;;5.38;3.90;;;21.00;99.90;;;;;;5010707;28;20108;-68
2021/09/25 05:06:17;;;;;;;6.55;4.13;;;21.00;99.90;;;;;;5002345;28;20101;-68
2021/09/25 05:08:43;;;;;;;7.88;3.83;;;21.00;99.90;;;;;;4992338;28;20034;-68
2021/09/25 05:11:08;;;;;;;5.00;4.13;;;20.90;99.90;;;;;;4992379;28;20031;-69
2021/09/25 05:13:34;;;;;;;5.60;3.72;;;20.90;99.90;;;;;;4999814;28;20084;-69
2021/09/25 05:16:00;;;;;;;5.30;4.22;;;20.90;99.90;;;;;;5004618;28;20033;-69
2021/09/25 05:18:26;;;;;;;5.95;3.90;;;20.90;99.90;;;;;;4992580;28;20061;-69
2021/09/25 05:20:52;;;;;;;4.13;3.72;;;20.90;99.90;;;;;;4997713;28;20028;-68
2021/09/25 05:23:18;;;;;;;4.13;3.60;;;20.90;99.90;;;;;;5012042;28;20105;-68
2021/09/25 05:25:44;;;;;;;9.80;4.50;;;20.90;99.90;;;;;;5010918;28;20029;-68
2021/09/25 05:28:10;;;;;;;5.57;4.38;;;20.90;99.90;;;;;;5011789;28;20109;-68
2021/09/25 05:30:37;;;;;;;4.95;4.03;;;20.90;99.90;;;;;;5011430;28;20021;-68
2021/09/25 05:33:03;;;;;;;5.43;3.85;;;20.90;99.90;;;;;;5011823;28;20436;-68
2021/09/25 05:35:29;;;;;;;6.05;3.60;;;20.90;99.90;;;;;;5008553;28;20197;-68
2021/09/25 05:37:54;;;;;;;7.45;3.67;;;20.80;99.90;;;;;;4991664;28;20358;-68
2021/09/25 05:40:21;;;;;;;7.38;4.10;;;20.80;99.90;;;;;;4992003;28;20100;-68
2021/09/25 05:42:47;;;;;;;7.72;3.70;;;20.80;99.90;;;;;;4991729;28;20375;-68
2021/09/25 05:45:13;;;;;;;5.80;3.70;;;20.80;99.90;;;;;;4992505;28;20161;-69
2021/09/25 05:47:38;;;;;;;6.15;3.92;;;20.90;99.90;;;;;;4996482;28;20418;-68
2021/09/25 05:50:05;;;;;;;7.85;3.90;;;20.80;99.90;;;;;;4992327;28;20030;-68
2021/09/25 05:52:30;;;;;;;8.77;3.83;;;20.80;99.90;;;;;;4992216;28;20046;-68
2021/09/25 05:54:56;;;;;;;4.20;3.78;;;20.80;99.90;;;;;;4991864;28;20046;-68
2021/09/25 05:57:21;;;;;;;6.72;3.35;;;20.80;99.90;;;;;;4994332;28;20026;-68
2021/09/25 05:59:47;;;;;;;5.82;3.90;;;20.80;99.90;;;;;;4998693;28;20022;-68
2021/09/25 06:02:13;;;;;;;4.45;3.85;;;20.80;99.90;;;;;;4991932;28;20026;-67
2021/09/25 06:04:38;;;;;;;4.50;3.55;;;20.80;99.90;;;;;;4972739;28;20451;-67
2021/09/25 06:07:11;;;;;;;4.18;3.53;;;20.70;99.90;;;;;;4972741;28;20101;-67
2021/09/25 06:09:38;;;;;;;4.75;4.10;;;20.70;99.90;;;;;;4972404;28;20035;-67
2021/09/25 06:12:05;;;;;;;5.40;3.85;;;20.80;99.90;;;;;;4972593;28;20031;-68
2021/09/25 06:14:30;;;;;;;4.30;3.53;;;20.70;99.90;;;;;;4973146;28;20114;-68
2021/09/25 06:16:57;;;;;;;4.00;3.40;;;20.70;99.90;;;;;;4991577;28;20412;-68
2021/09/25 06:19:22;;;;;;;3.97;3.58;;;20.70;99.90;;;;;;4991400;28;20030;-69
2021/09/25 06:21:48;;;;;;;3.85;3.53;;;20.70;99.90;;;;;;4991535;28;20026;-69
2021/09/25 06:24:14;;;;;;;3.92;3.30;;;20.70;99.90;;;;;;4991452;28;20427;-68
2021/09/25 06:26:39;;;;;;;4.97;3.53;;;20.70;99.90;;;;;;4991720;28;20502;-71
2021/09/25 06:29:05;;;;;;;3.70;3.40;;;20.70;99.90;;;;;;5010234;28;20453;-69
2021/09/25 06:31:32;;;;;;;4.47;3.33;;;20.70;99.90;;;;;;5011176;28;20029;-70
2021/09/25 06:33:57;;;;;;;5.90;3.78;;;20.70;99.90;;;;;;5008969;28;20029;-68
2021/09/25 06:36:23;;;;;;;8.82;3.90;;;20.70;99.90;;;;;;5000433;28;20414;-70
2021/09/25 06:38:49;;;;;;;5.57;4.13;;;20.70;99.90;;;;;;5003437;28;20137;-68
2021/09/25 06:41:17;;;;;;;10.15;8.13;;;20.70;99.90;;;;;;4991837;28;20033;-70
2021/09/25 06:43:43;;;;;;;10.50;8.68;;;20.60;99.90;;;;;;4992067;28;20563;-68
2021/09/25 06:46:09;;;;;;;14.07;9.60;;;20.50;99.90;;;;;;4991548;28;20487;-68
2021/09/25 06:48:35;;;;;;;11.25;9.55;;;20.40;99.90;;;;;;4991418;28;20345;-68
2021/09/25 06:51:01;;;;;;;16.05;10.65;;;20.40;99.90;;;;;;4996573;28;20078;-68
2021/09/25 06:53:27;;;;;;;13.93;10.38;;;20.30;99.90;;;;;;5011127;28;20048;-68
2021/09/25 06:55:52;;;;;;;12.13;9.25;;;20.30;99.90;;;;;;5012520;28;20097;-72
2021/09/25 06:58:18;;;;;;;11.82;10.15;;;20.20;99.90;;;;;;5014675;28;20026;-69
2021/09/25 07:00:47;;;;;;;12.73;10.10;;;20.20;99.90;;;;;;5014201;28;20022;-67
2021/09/25 07:03:13;;;;;;;9.50;8.40;;;20.10;99.90;;;;;;5014603;28;20030;-69
2021/09/25 07:05:39;;;;;;;8.40;7.32;;;20.10;99.90;;;;;;5012154;28;20082;-67
2021/09/25 07:08:05;;;;;;;8.02;6.97;;;20.10;99.90;;;;;;4994933;28;20114;-68
2021/09/25 07:10:30;;;;;;;7.28;6.28;;;20.10;99.90;;;;;;4994910;28;20041;-68
2021/09/25 07:12:56;;;;;;;7.68;6.40;;;20.10;99.90;;;;;;4994242;28;20074;-69
2021/09/25 07:15:22;;;;;;;6.53;5.43;;;20.10;99.90;;;;;;4994719;28;20026;-69
2021/09/25 07:17:47;;;;;;;6.03;4.85;;;20.10;99.90;;;;;;4994474;28;20026;-68
2021/09/25 07:20:17;;;;;;;5.47;4.82;;;20.10;99.90;;;;;;4994633;28;20022;-68
2021/09/25 07:22:45;;;;;;;5.78;4.60;;;20.10;99.90;;;;;;5012588;28;20491;-71
2021/09/25 07:25:11;;;;;;;11.32;4.82;;;20.10;99.90;;;;;;5013535;28;20026;-69
2021/09/25 07:27:37;;;;;;;6.53;4.53;;;20.10;99.90;;;;;;5013672;28;20358;-70
2021/09/25 07:30:03;;;;;;;7.82;5.35;;;20.10;99.90;;;;;;5013986;28;20037;-67
2021/09/25 07:32:29;;;;;;;12.98;5.18;;;20.10;99.90;;;;;;5005168;28;20038;-68
2021/09/25 07:34:55;;;;;;;8.13;4.70;;;20.10;99.90;;;;;;4994246;28;20029;-69
2021/09/25 07:37:20;;;;;;;7.88;4.88;;;20.10;99.90;;;;;;4977116;28;20422;-69
2021/09/25 07:39:46;;;;;;;5.20;4.47;;;20.10;99.90;;;;;;4992855;28;20035;-70
2021/09/25 07:42:12;;;;;;;6.18;4.40;;;20.10;99.90;;;;;;4990190;28;20409;-70
2021/09/25 07:44:37;;;;;;;5.65;4.53;;;20.10;99.90;;;;;;4992472;28;20049;-70
2021/09/25 07:47:03;;;;;;;4.78;4.13;;;20.10;99.90;;;;;;4994981;28;20023;-69
2021/09/25 07:49:29;;;;;;;5.47;3.88;;;20.10;99.90;;;;;;4995462;28;20033;-67
2021/09/25 07:51:55;;;;;;;4.28;3.80;;;20.10;99.90;;;;;;4974950;28;20117;-69
2021/09/25 07:54:20;;;;;;;5.65;4.00;;;20.10;99.90;;;;;;4992763;28;20390;-67
2021/09/25 07:56:46;;;;;;;5.57;3.20;;;20.10;99.90;;;;;;4996409;28;20049;-68
2021/09/25 07:59:11;;;;;;;4.10;3.67;;;20.10;99.90;;;;;;4994357;28;20041;-82
2021/09/25 08:01:37;;;;;;;5.53;3.70;;;20.10;99.90;;;;;;5004412;28;20025;-79
2021/09/25 08:04:03;;;;;;;4.57;3.50;;;20.10;99.90;;;;;;4993138;28;20395;-81
2021/09/25 08:06:28;;;;;;;8.18;3.80;;;20.10;99.90;;;;;;4992508;28;20034;-76
2021/09/25 08:08:54;;;;;;;5.40;3.50;;;20.10;99.90;;;;;;4995605;28;20447;-79
2021/09/25 08:11:20;;;;;;;4.93;3.15;;;20.10;99.90;;;;;;4992200;28;20015;-77
2021/09/25 08:13:45;;;;;;;6.97;3.13;;;20.10;99.90;;;;;;4991889;28;20035;-73
2021/09/25 08:16:11;;;;;;;3.50;2.95;;;20.10;99.90;;;;;;4992277;28;20057;-81
2021/09/25 08:18:37;;;;;;;4.05;3.15;;;20.10;99.90;;;;;;4993216;28;20080;-73
2021/09/25 08:21:05;;;;;;;4.47;3.35;;;20.10;99.90;;;;;;4993417;28;20023;-73
2021/09/25 08:23:30;;;;;;;4.63;3.22;;;20.10;99.90;;;;;;4993802;28;20034;-76
2021/09/25 08:25:56;;;;;;;4.57;3.33;;;20.10;99.90;;;;;;4993000;28;20459;-73
2021/09/25 08:28:22;;;;;;;3.35;3.00;;;20.10;99.90;;;;;;4993281;28;20027;-71
2021/09/25 09:23:36;;;;;;;4.75;2.88;;;20.30;99.90;;;;;;4933192;29;20478;-73
2021/09/25 09:26:03;;;;;;;4.55;2.85;;;20.30;99.90;;;;;;4985423;23;20055;-63
2021/09/25 09:28:31;;;;;;;5.15;3.13;;;20.30;99.90;;;;;;4955753;28;20031;-71
2021/09/25 09:31:00;;;;;;;7.05;2.83;;;20.40;99.90;;;;;;4972907;28;20026;-66
2021/09/25 09:33:46;;;;;;;5.90;2.95;;;20.40;99.90;;;;;;4972585;28;20066;-66
2021/09/25 09:36:17;;;;;;;5.25;2.80;;;20.40;99.90;;;;;;4973589;28;20021;-70
2021/09/25 09:38:53;;;;;;;5.43;2.90;;;20.40;99.90;;;;;;4987749;28;20034;-67
2021/09/25 09:41:21;;;;;;;4.50;2.83;;;20.40;99.90;;;;;;4990813;28;20077;-65
2021/09/25 09:43:47;;;;;;;3.90;2.55;;;20.40;99.90;;;;;;4991652;28;20027;-71
2021/09/25 09:46:14;;;;;;;3.85;2.55;;;20.50;99.90;;;;;;4991717;28;20054;-72
2021/09/25 09:48:40;;;;;;;4.65;2.72;;;20.50;99.90;;;;;;4991799;28;20026;-64
2021/09/25 09:51:06;;;;;;;5.47;2.80;;;20.50;99.90;;;;;;4991356;28;20031;-72
2021/09/25 09:53:43;;;;;;;4.85;2.70;;;20.50;99.90;;;;;;4991817;28;20544;-64
2021/09/25 09:56:24;;;;;;;5.18;2.78;;;20.50;99.90;;;;;;4991730;28;20057;-65
2021/09/25 09:59:01;;;;;;;3.35;2.47;;;20.50;99.90;;;;;;4989986;28;20038;-66
2021/09/25 10:01:27;;;;;;;4.72;2.40;;;20.60;99.90;;;;;;4991437;28;20030;-68
2021/09/25 10:03:53;;;;;;;5.97;2.17;;;20.60;99.90;;;;;;4991600;28;20026;-61
2021/09/25 10:06:19;;;;;;;6.13;2.47;;;20.60;99.90;;;;;;4991703;28;20354;-65
2021/09/25 10:08:45;;;;;;;2.83;2.42;;;20.60;99.90;;;;;;4991502;28;20022;-67
2021/09/25 10:11:11;;;;;;;5.22;2.40;;;20.70;99.90;;;;;;4991869;28;20423;-64
2021/09/25 10:13:41;;;;;;;3.95;2.28;;;20.70;99.90;;;;;;4991367;28;20124;-65
2021/09/25 10:16:08;;;;;;;2.63;2.33;;;20.70;99.90;;;;;;4991985;28;20022;-67
2021/09/25 10:18:35;;;;;;;2.95;2.30;;;20.70;99.90;;;;;;4974529;28;20026;-61
2021/09/25 10:21:02;;;;;;;3.88;2.90;;;20.70;99.90;;;;;;4991651;28;20474;-60
2021/09/25 10:23:30;;;;;;;4.38;2.60;;;20.70;99.90;;;;;;4991678;28;20042;-66
2021/09/25 10:25:57;;;;;;;4.03;2.58;;;20.70;99.90;;;;;;4991437;28;20030;-62
2021/09/25 10:28:28;;;;;;;4.32;2.58;;;20.80;99.90;;;;;;4991721;28;20065;-68
2021/09/25 10:30:55;;;;;;;3.95;2.63;;;20.80;99.90;;;;;;4993532;28;20145;-65
2021/09/25 10:33:23;;;;;;;2.95;2.38;;;20.80;99.90;;;;;;4995506;28;20539;-67
2021/09/25 10:35:51;;;;;;;5.28;2.33;;;20.80;99.90;;;;;;4994006;28;20030;-66
2021/09/25 10:38:35;;;;;;;5.78;2.40;;;20.80;99.90;;;;;;4994994;28;20050;-66
2021/09/25 10:41:41;;;;;;;3.42;2.28;;;20.90;99.90;;;;;;4987488;28;20109;-63
2021/09/25 10:44:33;;;;;;;3.50;2.45;;;20.90;99.90;;;;;;4955801;28;20042;-68
2021/09/25 10:47:15;;;;;;;5.13;2.30;;;20.90;99.90;;;;;;4995103;28;20022;-67
2021/09/25 10:49:45;;;;;;;2.90;2.17;;;20.90;99.90;;;;;;4995031;28;20065;-67
2021/09/25 10:52:13;;;;;;;3.22;2.22;;;21.00;99.90;;;;;;4995106;28;20093;-63
2021/09/25 10:54:39;;;;;;;2.65;2.00;;;21.00;99.90;;;;;;4994905;28;20110;-64
2021/09/25 10:57:14;;;;;;;4.63;2.38;;;21.00;99.90;;;;;;4995306;28;20378;-58
2021/09/25 11:00:19;;;;;;;2.67;2.17;;;21.00;99.90;;;;;;4994950;28;20018;-64
2021/09/25 11:02:44;;;;;;;2.92;2.03;;;21.00;99.90;;;;;;4994859;28;20019;-69
2021/09/25 11:05:15;;;;;;;3.38;2.25;;;21.00;99.90;;;;;;4995138;28;20085;-66
2021/09/25 11:07:43;;;;;;;2.60;2.00;;;21.10;99.90;;;;;;4977230;28;20054;-59
2021/09/25 11:10:09;;;;;;;2.30;2.00;;;21.10;99.90;;;;;;4994841;28;20030;-61
2021/09/25 11:12:46;;;;;;;2.58;2.00;;;21.10;99.90;;;;;;4994431;28;20398;-59
2021/09/25 11:15:33;;;;;;;2.72;2.10;;;21.10;99.90;;;;;;4994752;28;20490;-58
2021/09/25 11:18:25;;;;;;;2.83;2.25;;;21.20;99.90;;;;;;4994843;28;20022;-59
2021/09/25 11:20:50;;;;;;;2.45;2.05;;;21.20;99.90;;;;;;4994609;28;20038;-59
2021/09/25 11:23:16;;;;;;;2.40;1.83;;;21.20;99.90;;;;;;4994699;28;20553;-58
2021/09/25 11:25:50;;;;;;;4.05;2.25;;;21.20;99.90;;;;;;4994358;28;20488;-59
2021/09/25 11:28:20;;;;;;;;;;;21.30;99.90;;;;;;4995027;28;20027;-61
2021/09/25 11:30:46;;;;;;;3.22;2.00;;;21.30;99.90;;;;;;4994354;28;19909;-59
2021/09/25 11:33:11;;;;;;;3.80;2.55;;;21.30;99.90;;;;;;4994295;28;20119;-58
2021/09/25 11:35:38;;;;;;;3.70;2.40;;;21.30;99.90;;;;;;4994085;28;20023;-58
2021/09/25 11:38:10;;;;;;;2.97;2.33;;;21.40;99.90;;;;;;4994532;28;20026;-58
2021/09/25 11:40:45;;;;;;;2.55;1.92;;;21.30;99.90;;;;;;4976337;28;20117;-59
2021/09/25 11:43:13;;;;;;;2.30;1.90;;;21.40;99.90;;;;;;4994489;28;20030;-58
2021/09/25 11:45:45;;;;;;;4.63;2.00;;;21.40;99.90;;;;;;4993975;28;20023;-60
2021/09/25 11:48:13;;;;;;;3.33;2.08;;;21.40;99.90;;;;;;4994481;28;20073;-59
2021/09/25 11:50:44;;;;;;;3.40;2.20;;;21.50;99.90;;;;;;4993787;28;20105;-58
2021/09/25 11:53:13;;;;;;;2.53;1.95;;;21.50;99.90;;;;;;4994016;28;20040;-59
2021/09/25 11:55:41;;;;;;;2.80;2.00;;;21.50;99.90;;;;;;4993754;28;20030;-58
2021/09/25 11:58:10;;;;;;;2.38;1.98;;;21.50;99.90;;;;;;4993999;28;20026;-59
2021/09/25 12:00:45;;;;;;;3.15;1.98;;;21.60;99.90;;;;;;4993760;28;20426;-58
2021/09/25 12:03:13;;;;;;;2.92;2.08;;;21.50;99.90;;;;;;4993969;28;20049;-59
2021/09/25 12:05:44;;;;;;;2.22;1.95;;;21.60;99.90;;;;;;4993448;28;20176;-62
2021/09/25 12:08:11;;;;;;;2.65;1.98;;;21.60;99.90;;;;;;4993757;28;20034;-59
2021/09/25 12:10:48;;;;;;;2.80;1.80;;;21.70;99.90;;;;;;4993677;28;20402;-61
2021/09/25 12:13:21;;;;;;;2.13;1.80;;;21.70;99.90;;;;;;4993405;28;20513;-58
2021/09/25 12:15:51;;;;;;;3.28;2.20;;;21.70;99.90;;;;;;4993250;28;20023;-58
2021/09/25 12:18:19;;;;;;;1.95;1.70;;;21.70;99.90;;;;;;4976226;28;20057;-58
2021/09/25 12:20:53;;;;;;;2.60;1.80;;;21.70;99.90;;;;;;4993233;28;20065;-60
2021/09/25 12:23:32;;;;;;;2.95;2.00;;;21.80;99.90;;;;;;4993417;28;20018;-57
2021/09/25 12:25:58;;;;;;;3.03;2.42;;;21.80;99.90;;;;;;4993040;28;20045;-59
2021/09/25 12:28:28;;;;;;;3.55;2.65;;;21.80;99.90;;;;;;4993361;28;20033;-63
2021/09/25 12:30:57;;;;;;;2.88;2.15;;;21.80;99.90;;;;;;4993449;28;20371;-64
2021/09/25 12:33:23;;;;;;;3.88;2.22;;;21.90;99.90;;;;;;4993220;28;20054;-58
2021/09/25 12:36:01;;;;;;;3.78;2.40;;;21.90;99.90;;;;;;4992615;28;20018;-58
2021/09/25 12:38:29;;;;;;;2.60;2.30;;;21.90;99.90;;;;;;4993237;28;20058;-61
2021/09/25 12:41:03;;;;;;;3.75;2.47;;;22.00;99.90;;;;;;4992867;28;21093;-59
2021/09/25 12:43:44;;;;;;;3.17;2.30;;;22.00;99.90;;;;;;4975928;28;20019;-61
2021/09/25 12:46:29;;;;;;;2.97;2.25;;;22.00;99.90;;;;;;4993036;28;20037;-58
2021/09/25 12:49:17;;;;;;;3.05;2.30;;;22.10;99.90;;;;;;4992094;28;20018;-61
2021/09/25 12:51:45;;;;;;;2.70;2.20;;;22.10;99.90;;;;;;4990618;28;20034;-60
2021/09/25 12:54:30;;;;;;;3.40;1.90;;;22.10;99.90;;;;;;4990883;28;20393;-59
2021/09/25 12:57:04;;;;;;;2.20;1.83;;;22.10;99.90;;;;;;4989502;28;20110;-66
2021/09/25 12:59:57;;;;;;;3.65;1.98;;;22.10;99.90;;;;;;4975740;28;20027;-58
2021/09/25 13:02:23;;;;;;;3.25;1.90;;;22.10;99.90;;;;;;4992301;28;20383;-58
2021/09/25 13:04:52;;;;;;;3.25;1.85;;;22.20;99.90;;;;;;4992052;28;20022;-58
2021/09/25 13:07:38;;;;;;;2.10;1.90;;;22.20;99.90;;;;;;4991363;28;20061;-69
2021/09/25 13:10:08;;;;;;;3.85;2.20;;;22.20;99.90;;;;;;4989318;28;20056;-60
2021/09/25 13:12:42;;;;;;;2.55;1.95;;;22.20;99.90;;;;;;4992024;28;20053;-59
2021/09/25 13:15:13;;;;;;;3.28;2.08;;;22.20;99.90;;;;;;4989502;28;20430;-58
2021/09/25 13:17:41;;;;;;;2.75;1.92;;;22.30;99.90;;;;;;4991000;28;20030;-58
2021/09/25 13:20:09;;;;;;;2.55;2.00;;;22.30;99.90;;;;;;4991552;28;20514;-60
2021/09/25 13:22:35;;;;;;;3.53;2.20;;;22.30;99.90;;;;;;4990880;28;20034;-60
2021/09/25 13:25:02;;;;;;;4.32;2.22;;;22.30;99.90;;;;;;4991492;28;20031;-63
2021/09/25 13:27:30;;;;;;;3.10;1.77;;;22.40;99.90;;;;;;4991268;28;20470;-65
2021/09/25 13:29:56;;;;;;;2.60;1.90;;;22.40;99.90;;;;;;4990929;28;20083;-60
2021/09/25 13:32:25;;;;;;;2.50;2.08;;;22.40;99.90;;;;;;4973638;28;20398;-60
2021/09/25 13:34:51;;;;;;;2.42;1.70;;;22.40;99.90;;;;;;4972047;28;20054;-59
2021/09/25 13:37:17;;;;;;;3.95;2.10;;;22.50;99.90;;;;;;4971385;28;20046;-64
2021/09/25 13:39:44;;;;;;;3.92;2.30;;;22.50;99.90;;;;;;4953076;28;20027;-65
2021/09/25 13:42:10;;;;;;;3.60;2.00;;;22.50;99.90;;;;;;4971371;28;20149;-60